Knoxville, Georgia
Current Conditions -  °F | °C
As of 10:35 AM on Thursday 23 Oct 2014 (Local Time) from KPXE Reporting Station
Clear Clear  
Wind Chill: 61°   Ceiling: Unl
Heat Index: 61°   Visibility: 10mi
Dew Point: 43°   Wind: 5mph
Humidity: 51%   Direction: 120°ESE
Pressure: 30.16"   Gusts: NA
Location:  32.72°N, 84°W
Report Text: KPXE 231435Z AUTO 12004KT 10SM CLR 16/06 A3016 RMK AO2 T01620059
Loading
Personal Weather Stations






























Interactive Weather Map
Tropical Storm Tracking
New forecast layout! Learn more

10-Day Weather Forecast

Advertisements
Track Severe Weather on mobile